Detall de PIREP

Printer-friendly versionPDF version

[2012/03/17 18:21:00]
Flight IATA:CT1003
Pilot Number:026
Company ICAO:CAT
Aircraft Type:DC85/A
PAX:132
Departing Airport: LFSB
Destination Airport: EBBR
Alternate Airport:LICT
Online: VATSIM
Route:LUMEL/N0198F190 W110 HR G4 RLP B3 CMB Z373 ARVOL
Flight Level:F230
No Slew and time accel
No pause
Crash detect
Detect pilot in Cockpit between each 30 and 45 minutes
18:21 Zero fuel Weight: 179567 Lbs, Fuel Weight: 24001 Lbs
18:21 VATSIM:LFSB 171800Z VRB01KT CAVOK 14/M00 Q1017 NOSIG
18:21 VATSIM:EBBR 171750Z 21009KT 7000 BKN042 09/06 Q1014 NOSIG
18:21 VOICE CATALONIAN / CPT EBBR
18:23 Parking Brakes off
18:32 Take-off
18:32 Take off Weight: 202547 Lbs
18:32 Wind: 160º @ 003 Knots Heading: 155º
18:32 POS N47º 36´ 06´´ E007º 31´ 15´´
18:32 Gear Up: 162 Knots
18:32 Flaps:2 at 162 Knots
18:33 Flaps:1 at 199 Knots
18:33 Flaps:0 at 192 Knots
18:44 TOC
18:44 Fuel Weight:19126 Lb
18:46 TOD
18:46 Fuel Weight: 18750 Lb
18:46 TOC
18:46 Fuel Weight: 18657 Lb
18:47 Wind:175º@005 Knots Heading: 285º Ground Speed: 425 Knots Altitude 23451 ft
19:02 Wind:180º@020 Knots Heading: 347º Ground Speed: 440 Knots Altitude 23175 ft
19:06 Flaps:1 at 324 Knots
19:06 Flaps:0 at 324 Knots
19:07 TOD
19:07 Fuel Weight: 13553 Lb
19:17 Wind:185º@021 Knots Heading: 038º Ground Speed: 297 Knots Altitude 12083 ft
19:28 Flaps:1 at 166 Knots
19:32 Wind:196º@010 Knots Heading: 238º Ground Speed: 133 Knots Altitude 2972 ft
19:33 Flaps:2 at 158 Knots
19:34 Flaps:3 at 184 Knots
19:34 Flaps:4 at 176 Knots
19:34 Gear Down: 174 Knots
19:35 Flaps:5 at 139 Knots
19:35 TouchDown:Rate -237 ft/min Speed: 121 Knots
19:36 VATSIM:EBBR 171920Z 20006KT 7000 BKN042 09/06 Q1014 NOSIG
19:36 Land
19:36 Wind:202º@006 Knots
19:36 Heading: 248º
19:36 Flight Duration: 01:04
19:36 Landing Weight: 190484 Lbs
19:36 POS N50º 53´ 44´´ E004º 30´ 32´´
19:46 Parking brakes on
19:46 Block to Block Duration: 01:23
19:46 Final Fuel: 10050 Lbls
19:46 Spent Fuel: 13950 Lbls
19:46 Flight Length: 371 NM
19:46 TOD Land Length: 132 NM

Exportar CSV

Powered by Drupal - Modified by Danger4k